Time;durP1;ratioP1;P1;durP2;ratioP2;P2;SDS_P1;SDS_P2;PMS_P1;PMS_P2;Temp;Humidity;BMP_temperature;BMP_pressure;BME280_temperature;BME280_humidity;BME280_pressure;Samples;Min_cycle;Max_cycle;Signal;HPM_P1;HPM_P2
2022/09/21 00:01:16;;;;;;;3.32;2.32;;;;;;;15.90;66.16;100319.77;462856;114;923110;-77
2022/09/21 00:02:19;;;;;;;5.33;2.51;;;;;;;15.88;66.16;100316.45;462851;114;923519;-77
2022/09/21 00:03:22;;;;;;;4.30;2.38;;;;;;;15.86;66.16;100319.45;463040;114;923094;-77
2022/09/21 00:04:25;;;;;;;2.71;2.08;;;;;;;15.84;66.09;100318.87;463044;114;923015;-77
2022/09/21 00:05:28;;;;;;;3.52;2.30;;;;;;;15.81;66.04;100311.98;463052;114;923052;-77
2022/09/21 00:06:34;;;;;;;3.02;2.31;;;;;;;15.81;66.05;100322.97;462968;114;922492;-77
2022/09/21 00:07:37;;;;;;;2.50;2.26;;;;;;;15.80;66.04;100312.22;464904;114;922564;-77
2022/09/21 00:08:40;;;;;;;2.52;2.33;;;;;;;15.80;66.13;100314.97;465329;114;930320;-77
2022/09/21 00:09:43;;;;;;;2.74;2.48;;;;;;;15.79;66.18;100322.39;465317;114;923046;-77
2022/09/21 00:10:49;;;;;;;2.93;2.50;;;;;;;15.81;66.21;100327.64;465440;113;922894;-77
2022/09/21 00:11:58;;;;;;;3.38;2.78;;;;;;;15.80;66.18;100323.22;465195;114;923003;-77
2022/09/21 00:13:01;;;;;;;4.49;2.59;;;;;;;15.81;66.12;100327.64;465403;114;922739;-77
2022/09/21 00:14:11;;;;;;;3.19;2.55;;;;;;;15.80;66.14;100326.80;465317;114;922535;-77
2022/09/21 00:15:20;;;;;;;4.10;2.23;;;;;;;15.80;66.13;100328.72;465141;114;930322;-77
2022/09/21 00:16:21;;;;;;;2.99;2.26;;;;;;;15.80;66.03;100326.80;456667;116;922998;-77
2022/09/21 00:17:24;;;;;;;3.07;2.30;;;;;;;15.80;65.98;100329.55;457197;116;923005;-77
2022/09/21 00:18:27;;;;;;;2.77;2.12;;;;;;;15.80;65.97;100325.97;457205;116;930351;-77
2022/09/21 00:19:30;;;;;;;2.38;2.17;;;;;;;15.81;65.88;100327.64;457269;116;922528;-76
2022/09/21 00:20:33;;;;;;;4.58;1.99;;;;;;;15.81;65.90;100325.72;457244;116;922658;-76
2022/09/21 00:21:37;;;;;;;2.37;2.00;;;;;;;15.82;65.74;100319.11;457260;116;922970;-76
2022/09/21 00:22:40;;;;;;;3.47;2.25;;;;;;;15.83;65.65;100314.45;457220;116;922863;-77
2022/09/21 00:23:44;;;;;;;2.77;2.03;;;;;;;15.83;65.62;100311.70;457106;116;930290;-76
2022/09/21 00:24:47;;;;;;;2.88;2.09;;;;;;;15.83;65.49;100319.95;457102;116;930774;-76
2022/09/21 00:25:50;;;;;;;2.36;1.88;;;;;;;15.83;65.43;100314.45;457192;116;923070;-77
2022/09/21 00:26:53;;;;;;;2.65;1.84;;;;;;;15.83;65.37;100320.78;457326;116;922516;-76
2022/09/21 00:27:56;;;;;;;2.62;2.03;;;;;;;15.82;65.28;100313.61;447884;118;923044;-77
2022/09/21 00:29:02;;;;;;;3.64;1.98;;;;;;;15.81;65.25;100308.39;448298;116;923199;-77
2022/09/21 00:30:06;;;;;;;3.22;1.92;;;;;;;15.81;65.23;100311.14;459796;114;922443;-76
2022/09/21 00:31:11;;;;;;;2.52;1.75;;;;;;;15.79;65.14;100316.89;462862;114;922956;-77
2022/09/21 00:32:14;;;;;;;2.24;1.86;;;;;;;15.77;65.05;100321.80;465299;114;922544;-76
2022/09/21 00:33:17;;;;;;;2.77;1.67;;;;;;;15.74;64.92;100335.23;465336;114;930693;-77
2022/09/21 00:34:20;;;;;;;2.99;1.77;;;;;;;15.68;64.80;100334.33;466260;113;922899;-77
2022/09/21 00:35:23;;;;;;;2.61;2.40;;;;;;;15.63;64.86;100341.67;466477;113;922386;-78
2022/09/21 00:36:27;;;;;;;2.16;1.57;;;;;;;15.58;64.94;100331.45;466590;113;922587;-77
2022/09/21 00:37:30;;;;;;;2.20;1.83;;;;;;;15.53;65.08;100333.30;466455;113;923487;-77
2022/09/21 00:38:34;;;;;;;3.06;2.23;;;;;;;15.50;65.20;100328.25;466466;113;922485;-77
2022/09/21 00:39:37;;;;;;;2.96;2.19;;;;;;;15.47;65.31;100326.03;466437;113;922946;-77
2022/09/21 00:40:40;;;;;;;1.60;1.50;;;;;;;15.43;65.41;100318.30;466550;113;922548;-77
2022/09/21 00:41:44;;;;;;;2.30;2.10;;;;;;;15.41;65.62;100311.39;466495;113;922527;-77
2022/09/21 00:42:47;;;;;;;3.09;2.03;;;;;;;15.41;65.68;100314.13;466400;113;922817;-77
2022/09/21 00:44:19;;;;;;;3.23;2.02;;;;;;;15.42;65.79;100327.63;466527;113;922977;-77
2022/09/21 00:45:22;;;;;;;2.62;2.31;;;;;;;15.42;65.88;100307.56;466307;113;922712;-77
2022/09/21 00:46:30;;;;;;;2.47;1.82;;;;;;;15.42;65.97;100311.14;466501;113;922565;-77
2022/09/21 00:47:39;;;;;;;3.59;1.86;;;;;;;15.45;66.01;100309.79;466277;113;922987;-77
2022/09/21 00:48:43;;;;;;;2.18;1.98;;;;;;;15.42;65.98;100307.56;466222;113;922975;-77
2022/09/21 00:49:50;;;;;;;2.95;2.14;;;;;;;15.40;65.91;100313.30;466341;113;922511;-76
2022/09/21 00:50:57;;;;;;;2.50;1.96;;;;;;;15.38;65.87;100317.41;466285;113;922613;-77
2022/09/21 00:52:03;;;;;;;1.95;1.73;;;;;;;15.35;65.86;100315.98;466083;113;922875;-77
2022/09/21 00:53:06;;;;;;;2.30;1.93;;;;;;;15.32;65.87;100310.17;465298;114;922630;-78
2022/09/21 00:54:13;;;;;;;4.97;2.22;;;;;;;15.29;65.92;100310.66;465401;114;923142;-77
2022/09/21 00:55:29;;;;;;;2.40;2.10;;;;;;;15.28;66.11;100311.73;465285;114;923112;-77
2022/09/21 00:56:35;;;;;;;2.34;1.83;;;;;;;15.28;66.25;100309.82;464911;114;923014;-77
2022/09/21 00:57:39;;;;;;;2.28;1.85;;;;;;;15.29;66.36;100307.91;465177;114;922862;-78
2022/09/21 00:58:46;;;;;;;3.88;2.31;;;;;;;15.30;66.50;100304.08;465299;114;922978;-77
2022/09/21 00:59:52;;;;;;;3.27;1.86;;;;;;;15.32;66.57;100304.67;465217;114;922436;-77
2022/09/21 01:00:58;;;;;;;3.98;2.14;;;;;;;15.34;66.59;100306.06;465180;113;922974;-77
2022/09/21 01:02:02;;;;;;;3.66;1.76;;;;;;;15.36;66.61;100306.66;465222;114;922847;-77
2022/09/21 01:03:07;;;;;;;2.49;1.97;;;;;;;15.38;66.51;100312.71;465408;114;922419;-78
2022/09/21 01:04:12;;;;;;;2.38;1.74;;;;;;;15.39;66.53;100313.55;465255;114;923018;-77
2022/09/21 01:05:15;;;;;;;6.81;2.11;;;;;;;15.40;66.44;100309.72;465206;114;922955;-78
2022/09/21 01:06:20;;;;;;;2.93;1.99;;;;;;;15.42;66.41;100321.30;465304;114;922479;-76
2022/09/21 01:07:27;;;;;;;1.91;1.81;;;;;;;15.41;66.33;100319.63;465247;114;922458;-78
2022/09/21 01:08:30;;;;;;;3.37;2.20;;;;;;;15.40;66.32;100324.29;465102;114;923182;-77
2022/09/21 01:09:33;;;;;;;3.81;2.14;;;;;;;15.37;66.28;100322.06;463703;114;922858;-77
2022/09/21 01:10:55;;;;;;;1.99;1.51;;;;;;;15.37;66.28;100322.06;460624;113;930333;-78
2022/09/21 01:12:11;;;;;;;;;;;;;;;15.36;66.36;100327.80;464288;115;922080;-77
2022/09/21 01:13:36;;;;;;;1.66;1.56;;;;;;;15.34;66.47;100319.80;460637;115;922555;-77
2022/09/21 01:14:51;;;;;;;2.56;1.88;;;;;;;15.31;66.53;100323.06;460583;115;922459;-77
2022/09/21 01:16:29;;;;;;;6.32;1.82;;;;;;;15.28;66.56;100329.05;459251;115;923012;-78
2022/09/21 01:17:39;;;;;;;2.78;1.68;;;;;;;15.24;66.56;100327.89;458766;115;922560;-77
2022/09/21 01:18:46;;;;;;;2.46;2.08;;;;;;;15.21;66.57;100331.16;458099;115;922443;-77
2022/09/21 01:19:53;;;;;;;2.46;1.89;;;;;;;15.20;66.63;100323.16;458387;115;922788;-77
2022/09/21 01:21:18;;;;;;;2.07;1.84;;;;;;;15.18;66.65;100319.82;458747;115;922570;-77
2022/09/21 01:22:47;;;;;;;4.26;1.70;;;;;;;15.17;66.71;100310.75;458724;115;922678;-77
2022/09/21 01:24:12;;;;;;;2.96;2.31;;;;;;;15.14;66.70;100314.02;458782;115;922501;-77
2022/09/21 01:25:18;;;;;;;2.44;1.98;;;;;;;15.12;66.85;100324.41;458285;115;922976;-77
2022/09/21 01:26:31;;;;;;;1.89;1.77;;;;;;;15.09;66.92;100316.68;458274;115;922595;-77
2022/09/21 01:27:43;;;;;;;4.14;2.26;;;;;;;15.08;67.02;100315.02;458740;115;922684;-77
2022/09/21 01:29:15;;;;;;;3.55;2.11;;;;;;;15.07;67.03;100309.77;458690;115;922415;-77
2022/09/21 01:30:22;;;;;;;1.94;1.79;;;;;;;15.05;67.05;100318.24;454975;114;922690;-77
2022/09/21 01:31:28;;;;;;;3.92;1.80;;;;;;;15.06;67.14;100313.59;457321;114;923245;-77
2022/09/21 01:32:35;;;;;;;2.43;1.83;;;;;;;15.05;67.23;100318.24;461654;114;922841;-77
2022/09/21 01:33:47;;;;;;;2.11;1.67;;;;;;;15.04;67.22;100324.84;461136;114;922700;-77
2022/09/21 01:35:11;;;;;;;2.72;1.62;;;;;;;15.04;67.28;100319.35;453807;116;923262;-77
2022/09/21 01:36:18;;;;;;;3.36;2.11;;;;;;;15.06;67.34;100335.55;453114;116;923307;-77
2022/09/21 01:37:24;;;;;;;2.22;1.89;;;;;;;15.06;67.38;100322.66;452599;117;923036;-77
2022/09/21 01:38:33;;;;;;;3.33;2.25;;;;;;;15.06;67.55;100308.93;452200;117;923340;-77
2022/09/21 01:39:39;;;;;;;3.37;2.19;;;;;;;15.08;67.63;100309.52;452642;117;922637;-78
2022/09/21 01:40:45;;;;;;;3.07;1.83;;;;;;;15.10;67.69;100312.86;452669;115;922546;-77
2022/09/21 01:41:51;;;;;;;2.48;1.99;;;;;;;15.13;67.73;100320.58;452105;117;923029;-77
2022/09/21 01:42:56;;;;;;;2.18;1.89;;;;;;;15.16;67.71;100319.27;452649;117;923035;-77
2022/09/21 01:44:09;;;;;;;5.48;2.02;;;;;;;15.17;67.71;100315.41;452593;117;922557;-77
2022/09/21 01:45:16;;;;;;;4.51;2.07;;;;;;;15.17;67.68;100310.75;452658;117;922591;-75
2022/09/21 01:46:21;;;;;;;2.33;1.90;;;;;;;15.18;67.63;100320.66;452652;117;922572;-77
2022/09/21 01:47:25;;;;;;;3.45;2.13;;;;;;;15.18;67.57;100323.41;452728;117;922779;-77
2022/09/21 01:48:35;;;;;;;3.38;2.19;;;;;;;15.19;67.54;100321.49;452601;117;930300;-78
2022/09/21 01:49:41;;;;;;;2.92;1.99;;;;;;;15.18;67.41;100311.59;452571;117;922867;-75
2022/09/21 01:50:47;;;;;;;2.74;1.94;;;;;;;15.17;67.42;100323.65;452374;115;922571;-77
2022/09/21 01:51:57;;;;;;;2.27;1.72;;;;;;;15.15;67.46;100318.42;453482;114;923546;-76
2022/09/21 01:53:10;;;;;;;3.26;2.44;;;;;;;15.16;67.47;100327.50;454038;115;923193;-76
2022/09/21 01:54:18;;;;;;;2.37;1.84;;;;;;;15.16;67.51;100324.76;455518;114;923273;-76
2022/09/21 01:55:31;;;;;;;2.29;1.94;;;;;;;15.15;67.60;100320.34;462118;114;922621;-76
2022/09/21 01:56:45;;;;;;;5.48;2.41;;;;;;;15.15;67.71;100321.17;462092;114;922591;-76
2022/09/21 01:58:01;;;;;;;2.93;2.37;;;;;;;15.16;67.75;100317.31;462108;114;922532;-76
2022/09/21 01:59:10;;;;;;;3.09;1.84;;;;;;;15.18;67.83;100319.82;462098;114;923302;-76
2022/09/21 02:00:14;;;;;;;6.78;1.95;;;;;;;15.18;67.91;100323.41;452618;117;922507;-76
2022/09/21 02:01:21;;;;;;;3.17;2.06;;;;;;;15.19;67.97;100325.08;452702;115;923007;-76
2022/09/21 02:02:39;;;;;;;3.08;2.01;;;;;;;15.21;67.93;100330.33;452627;117;922502;-76
2022/09/21 02:03:51;;;;;;;2.09;1.84;;;;;;;15.22;67.85;100323.72;452202;117;923194;-76
2022/09/21 02:04:55;;;;;;;3.01;1.70;;;;;;;15.21;67.88;100320.17;449885;117;922748;-76
2022/09/21 02:05:59;;;;;;;3.23;2.06;;;;;;;15.23;67.93;100319.90;452741;115;922450;-76
2022/09/21 02:07:03;;;;;;;3.72;1.95;;;;;;;15.23;67.89;100325.39;452810;117;922559;-76
2022/09/21 02:08:08;;;;;;;2.34;1.90;;;;;;;15.22;67.90;100324.55;452775;117;922784;-77
2022/09/21 02:09:12;;;;;;;3.61;1.98;;;;;;;15.22;67.77;100316.31;452756;117;922584;-77
2022/09/21 02:10:21;;;;;;;3.06;1.94;;;;;;;15.20;67.78;100315.76;454525;116;931083;-76
2022/09/21 02:11:24;;;;;;;2.97;1.97;;;;;;;15.20;67.84;100321.25;455371;116;922483;-76
2022/09/21 02:12:28;;;;;;;3.29;1.66;;;;;;;15.21;67.88;100320.17;455650;116;922901;-76
2022/09/21 02:13:34;;;;;;;4.11;2.17;;;;;;;15.21;67.79;100322.92;455553;116;922809;-76
2022/09/21 02:14:38;;;;;;;2.46;1.89;;;;;;;15.21;67.78;100319.34;455341;116;930578;-76
2022/09/21 02:16:11;;;;;;;2.26;1.86;;;;;;;15.20;67.74;100315.76;458855;114;923390;-76
2022/09/21 02:17:22;;;;;;;2.37;1.83;;;;;;;15.18;67.72;100309.67;454132;116;930352;-76
2022/09/21 02:18:49;;;;;;;2.51;2.22;;;;;;;15.16;67.79;100317.31;448860;118;922777;-76
2022/09/21 02:20:02;;;;;;;3.18;2.46;;;;;;;15.15;67.85;100312.94;463138;114;922549;-76
2022/09/21 02:21:10;;;;;;;3.89;2.28;;;;;;;15.13;67.97;100312.34;463407;114;922910;-76
2022/09/21 02:22:32;;;;;;;2.84;2.04;;;;;;;15.12;68.01;100315.33;463277;114;922495;-76
2022/09/21 02:23:39;;;;;;;4.75;2.21;;;;;;;15.10;67.94;100318.35;463394;114;922501;-76
2022/09/21 02:24:55;;;;;;;3.27;1.77;;;;;;;15.08;67.91;100323.25;463306;114;922589;-76
2022/09/21 02:26:11;;;;;;;1.94;1.82;;;;;;;15.06;67.92;100313.59;463314;114;922505;-76
2022/09/21 02:27:39;;;;;;;2.06;1.67;;;;;;;15.03;67.95;100310.28;463447;114;922877;-77
2022/09/21 02:29:04;;;;;;;2.48;1.99;;;;;;;15.01;67.94;100301.45;463183;114;922978;-76
2022/09/21 02:30:19;;;;;;;2.12;1.81;;;;;;;14.98;68.05;100301.97;456853;114;922543;-77
2022/09/21 02:31:25;;;;;;;3.02;1.99;;;;;;;14.97;68.10;100299.45;457008;114;922539;-76
2022/09/21 02:32:51;;;;;;;4.05;2.12;;;;;;;14.94;68.09;100302.72;463045;114;922611;-77
2022/09/21 02:34:10;;;;;;;2.20;1.91;;;;;;;14.91;68.08;100312.27;463465;114;922897;-77
2022/09/21 02:35:16;;;;;;;2.32;1.95;;;;;;;14.89;68.09;100316.34;463507;114;922507;-77
2022/09/21 02:36:24;;;;;;;2.88;1.89;;;;;;;14.85;68.06;100326.99;463540;114;922832;-77
2022/09/21 02:37:34;;;;;;;2.91;2.16;;;;;;;14.82;68.04;100329.41;463462;114;922616;-77
2022/09/21 02:38:46;;;;;;;4.06;2.18;;;;;;;14.81;68.10;100327.74;463488;114;923457;-77
2022/09/21 02:40:08;;;;;;;4.57;2.46;;;;;;;14.78;68.19;100318.08;463519;114;923806;-77
2022/09/21 02:41:18;;;;;;;2.86;2.18;;;;;;;14.77;68.36;100305.47;449649;118;923184;-77
2022/09/21 02:42:27;;;;;;;2.56;2.07;;;;;;;14.79;68.45;100296.95;462977;114;922663;-78
2022/09/21 02:43:40;;;;;;;2.89;2.19;;;;;;;14.78;68.47;100293.38;463486;114;922969;-77
2022/09/21 02:44:52;;;;;;;3.46;2.31;;;;;;;14.78;68.53;100296.12;463464;114;922503;-77
2022/09/21 02:45:59;;;;;;;3.21;2.71;;;;;;;14.79;68.62;100295.05;463411;114;922530;-77
2022/09/21 02:47:17;;;;;;;3.95;2.53;;;;;;;14.81;68.62;100300.30;463262;114;922629;-78
2022/09/21 02:48:33;;;;;;;3.03;2.74;;;;;;;14.81;68.66;100297.55;463511;114;922572;-77
2022/09/21 02:49:42;;;;;;;2.94;2.27;;;;;;;14.82;68.69;100293.73;463489;114;922835;-77
2022/09/21 02:50:49;;;;;;;4.14;2.33;;;;;;;14.83;68.76;100303.64;463420;114;922520;-77
2022/09/21 02:51:55;;;;;;;3.46;2.46;;;;;;;14.84;68.77;100299.78;463489;114;922520;-78
2022/09/21 02:53:01;;;;;;;4.18;3.17;;;;;;;14.85;68.75;100295.97;463022;114;922963;-78
2022/09/21 02:54:07;;;;;;;2.97;2.57;;;;;;;14.88;68.74;100284.50;463453;114;923000;-75
2022/09/21 02:55:12;;;;;;;4.69;2.37;;;;;;;14.90;68.77;100274.08;463445;114;922607;-76
2022/09/21 02:56:16;;;;;;;3.42;2.59;;;;;;;14.91;68.80;100270.27;463394;114;922545;-78
2022/09/21 02:57:22;;;;;;;2.94;2.43;;;;;;;14.94;68.86;100275.27;463585;114;922724;-76
2022/09/21 02:58:27;;;;;;;3.45;2.34;;;;;;;14.97;68.79;100281.08;463414;114;930458;-76
2022/09/21 02:59:31;;;;;;;2.72;2.40;;;;;;;14.97;68.69;100286.56;463476;114;922873;-77
2022/09/21 03:00:35;;;;;;;3.49;3.14;;;;;;;14.96;68.55;100282.16;454870;116;923123;-76
2022/09/21 03:01:40;;;;;;;2.95;2.54;;;;;;;14.96;68.52;100282.16;455450;114;922666;-76
2022/09/21 03:02:44;;;;;;;3.24;2.58;;;;;;;14.96;68.51;100281.31;463506;114;923112;-76
2022/09/21 03:03:47;;;;;;;3.56;2.66;;;;;;;14.96;68.56;100292.30;463577;114;922497;-76
2022/09/21 03:04:50;;;;;;;4.66;2.58;;;;;;;14.95;68.59;100288.72;463665;114;922980;-77
2022/09/21 03:05:54;;;;;;;2.84;2.64;;;;;;;14.97;68.65;100293.97;463668;114;922457;-77
2022/09/21 03:06:57;;;;;;;3.18;2.42;;;;;;;14.97;68.65;100282.98;463599;114;922860;-77
2022/09/21 03:08:00;;;;;;;4.98;2.99;;;;;;;14.97;68.63;100288.48;463659;114;922958;-78
2022/09/21 03:09:03;;;;;;;4.21;3.02;;;;;;;14.99;68.66;100289.07;463650;114;922553;-78
2022/09/21 03:10:08;;;;;;;4.06;2.92;;;;;;;14.99;68.60;100289.07;463743;114;922495;-77
2022/09/21 03:11:16;;;;;;;3.23;2.92;;;;;;;14.98;68.65;100293.73;465299;113;922498;-77
2022/09/21 03:12:21;;;;;;;4.84;3.08;;;;;;;14.99;68.54;100291.81;465215;114;922601;-77
2022/09/21 03:13:24;;;;;;;3.26;2.85;;;;;;;14.97;68.53;100294.80;465297;114;922479;-77
2022/09/21 03:14:27;;;;;;;2.98;2.61;;;;;;;14.97;68.53;100288.48;465387;114;923158;-78
2022/09/21 03:15:30;;;;;;;4.83;3.08;;;;;;;14.96;68.52;100284.06;463355;114;922548;-76
2022/09/21 03:16:34;;;;;;;2.83;2.49;;;;;;;14.94;68.46;100278.02;457141;116;922524;-77
2022/09/21 03:17:37;;;;;;;2.94;2.69;;;;;;;14.92;68.39;100282.91;457117;116;922548;-77
2022/09/21 03:18:42;;;;;;;3.61;2.96;;;;;;;14.88;68.41;100281.76;457182;116;922564;-77
2022/09/21 03:19:45;;;;;;;3.83;2.42;;;;;;;14.87;68.42;100289.16;457014;116;923012;-77
2022/09/21 03:20:48;;;;;;;3.85;2.47;;;;;;;14.87;68.52;100282.83;457093;116;923022;-77
2022/09/21 03:21:53;;;;;;;3.61;2.86;;;;;;;14.86;68.58;100278.42;457182;116;922713;-77
2022/09/21 03:22:56;;;;;;;2.86;2.64;;;;;;;14.84;68.53;100275.08;457046;116;923060;-77
2022/09/21 03:23:59;;;;;;;3.28;2.47;;;;;;;14.84;68.48;100277.83;457234;116;922583;-78
2022/09/21 03:25:02;;;;;;;3.03;2.74;;;;;;;14.82;68.44;100275.36;447818;118;923202;-77
2022/09/21 03:26:05;;;;;;;3.66;2.46;;;;;;;14.82;68.51;100290.98;448130;116;923049;-77
2022/09/21 03:27:08;;;;;;;3.72;2.77;;;;;;;14.79;68.49;100285.98;457264;115;922978;-77
2022/09/21 03:28:12;;;;;;;3.66;2.57;;;;;;;14.77;68.42;100290.91;457227;116;922880;-77
2022/09/21 03:29:15;;;;;;;2.66;2.46;;;;;;;14.75;68.43;100293.89;457233;116;923189;-77
2022/09/21 03:30:21;;;;;;;4.39;2.88;;;;;;;14.74;68.49;100305.11;461799;114;922399;-76
2022/09/21 03:31:24;;;;;;;2.47;2.27;;;;;;;14.71;68.46;100297.39;463836;114;923529;-76
2022/09/21 03:32:27;;;;;;;4.83;2.49;;;;;;;14.69;68.42;100299.53;465413;114;923152;-77
2022/09/21 03:33:30;;;;;;;3.45;2.47;;;;;;;14.66;68.38;100294.56;465456;114;922668;-77
2022/09/21 03:34:33;;;;;;;4.39;2.51;;;;;;;14.65;68.48;100301.13;457303;116;922579;-77
2022/09/21 03:35:36;;;;;;;2.77;2.12;;;;;;;14.63;68.55;100292.30;457304;115;922488;-77
2022/09/21 03:36:40;;;;;;;3.24;2.58;;;;;;;14.61;68.45;100298.86;457282;116;922972;-77
2022/09/21 03:37:44;;;;;;;3.02;2.44;;;;;;;14.58;68.39;100293.88;457262;116;922571;-77
2022/09/21 03:38:47;;;;;;;4.19;2.92;;;;;;;14.56;68.39;100300.68;457327;115;922613;-76
2022/09/21 03:39:50;;;;;;;4.54;2.91;;;;;;;14.52;68.48;100299.52;457301;116;922974;-76
2022/09/21 03:40:56;;;;;;;3.24;2.47;;;;;;;14.51;68.56;100295.94;457372;115;922816;-76
2022/09/21 03:41:59;;;;;;;3.17;2.39;;;;;;;14.50;68.60;100301.70;457167;116;922565;-76
2022/09/21 03:43:03;;;;;;;3.77;2.88;;;;;;;14.49;68.69;100300.03;457269;115;922595;-77
2022/09/21 03:44:06;;;;;;;3.90;3.31;;;;;;;14.47;68.62;100303.02;457175;116;930534;-78
2022/09/21 03:45:10;;;;;;;6.06;4.05;;;;;;;14.44;68.57;100302.69;457385;115;922534;-77
2022/09/21 03:46:13;;;;;;;3.97;3.64;;;;;;;14.43;68.58;100301.84;457114;115;922506;-77
2022/09/21 03:47:16;;;;;;;4.44;3.90;;;;;;;14.42;68.57;100302.92;457397;116;923113;-77
2022/09/21 03:48:21;;;;;;;5.92;3.56;;;;;;;14.40;68.60;100305.06;457349;116;923022;-77
2022/09/21 03:49:24;;;;;;;6.28;3.74;;;;;;;14.38;68.67;100309.98;457304;116;923411;-77
2022/09/21 03:50:28;;;;;;;4.45;3.98;;;;;;;14.36;68.57;100320.33;457177;115;922978;-77
2022/09/21 03:51:31;;;;;;;5.38;4.34;;;;;;;14.35;68.61;100323.31;457283;115;930938;-77
2022/09/21 03:52:36;;;;;;;4.28;3.86;;;;;;;14.34;68.64;100319.73;464056;114;922591;-80
2022/09/21 03:53:39;;;;;;;3.54;3.24;;;;;;;14.32;69.02;100313.68;465251;114;922418;-78
2022/09/21 03:54:42;;;;;;;4.74;3.27;;;;;;;14.32;69.02;100313.68;465408;114;922796;-77
2022/09/21 03:55:45;;;;;;;4.26;2.76;;;;;;;14.33;68.69;100314.52;465400;114;923109;-77
2022/09/21 03:56:48;;;;;;;3.21;2.82;;;;;;;14.32;68.67;100329.30;465433;114;922850;-78
2022/09/21 03:57:51;;;;;;;3.94;3.02;;;;;;;14.31;68.71;100322.14;465428;114;922504;-78
2022/09/21 03:58:54;;;;;;;3.47;3.17;;;;;;;14.30;68.72;100326.80;465429;114;922563;-77
2022/09/21 03:59:57;;;;;;;4.34;3.16;;;;;;;14.28;68.74;100325.39;465405;114;922882;-77
2022/09/21 04:01:01;;;;;;;4.59;3.16;;;;;;;14.27;68.72;100324.55;465408;114;923270;-78
2022/09/21 04:02:05;;;;;;;3.69;3.01;;;;;;;14.24;68.74;100327.77;465250;114;922476;-78
2022/09/21 04:03:08;;;;;;;3.15;2.65;;;;;;;14.24;68.82;100329.67;465439;114;922504;-77
2022/09/21 04:04:11;;;;;;;3.76;2.69;;;;;;;14.23;69.08;100323.36;465430;114;922970;-75
2022/09/21 04:05:15;;;;;;;3.76;2.66;;;;;;;14.25;69.11;100328.61;465401;114;922680;-79
2022/09/21 04:06:20;;;;;;;4.00;2.74;;;;;;;14.26;69.14;100331.11;465182;114;923037;-75
2022/09/21 04:07:23;;;;;;;3.27;2.40;;;;;;;14.25;69.11;100332.19;465365;114;922702;-78
2022/09/21 04:08:26;;;;;;;3.71;2.93;;;;;;;14.26;69.17;100327.53;465391;114;922521;-76
2022/09/21 04:09:31;;;;;;;6.01;2.95;;;;;;;14.24;69.08;100327.77;465412;114;923069;-78
2022/09/21 04:10:34;;;;;;;3.39;2.92;;;;;;;14.23;69.12;100326.09;464787;114;922558;-75
2022/09/21 04:11:37;;;;;;;2.56;2.35;;;;;;;14.22;69.14;100327.20;463652;114;922928;-78
2022/09/21 04:12:42;;;;;;;2.56;2.41;;;;;;;14.22;69.16;100329.11;463658;114;923112;-76
2022/09/21 04:13:49;;;;;;;3.57;2.61;;;;;;;14.20;69.24;100329.34;463465;114;922912;-75
2022/09/21 04:14:52;;;;;;;3.18;2.72;;;;;;;14.18;69.31;100326.84;463327;114;922511;-77
2022/09/21 04:15:55;;;;;;;4.03;2.46;;;;;;;14.18;69.41;100326.84;457211;114;922585;-78
2022/09/21 04:16:58;;;;;;;4.15;2.45;;;;;;;14.19;69.49;100324.94;453812;117;922528;-77
2022/09/21 04:18:01;;;;;;;3.28;2.46;;;;;;;14.18;69.51;100329.58;453840;117;922598;-77
2022/09/21 04:19:04;;;;;;;3.49;2.37;;;;;;;14.20;69.56;100327.44;453770;117;923042;-77
2022/09/21 04:20:09;;;;;;;3.79;2.38;;;;;;;14.22;69.58;100334.59;453673;117;930339;-77
2022/09/21 04:21:12;;;;;;;2.73;2.52;;;;;;;14.20;69.66;100335.66;453778;117;922705;-77
2022/09/21 04:22:15;;;;;;;4.04;2.61;;;;;;;14.21;69.62;100336.50;453791;117;922896;-76
2022/09/21 04:23:19;;;;;;;3.46;2.21;;;;;;;14.22;69.68;100337.34;453837;117;922524;-77
2022/09/21 04:24:24;;;;;;;2.83;2.48;;;;;;;14.22;69.80;100329.95;452593;117;923004;-77
2022/09/21 04:25:28;;;;;;;2.56;2.34;;;;;;;14.24;69.77;100340.64;451985;117;922535;-76
2022/09/21 04:26:34;;;;;;;3.98;2.64;;;;;;;14.24;69.81;100333.25;449714;117;930938;-77
2022/09/21 04:27:39;;;;;;;3.20;2.60;;;;;;;14.25;69.83;100342.31;453493;117;930500;-76
2022/09/21 04:28:44;;;;;;;2.53;2.20;;;;;;;14.26;69.88;100341.25;453108;117;922561;-77
2022/09/21 04:29:49;;;;;;;2.39;2.19;;;;;;;14.28;69.92;100341.84;454839;115;923008;-78
2022/09/21 04:30:54;;;;;;;2.94;2.43;;;;;;;14.28;69.96;100347.33;452497;117;923066;-78
2022/09/21 04:31:59;;;;;;;2.98;2.74;;;;;;;14.28;69.91;100339.91;450128;115;923171;-77
2022/09/21 04:33:04;;;;;;;3.62;2.72;;;;;;;14.28;69.87;100341.84;456703;115;922474;-77
2022/09/21 04:34:12;;;;;;;4.82;2.79;;;;;;;14.29;69.92;100348.97;452269;115;922496;-77
2022/09/21 04:35:17;;;;;;;3.04;2.62;;;;;;;14.29;70.00;100340.74;449051;117;923222;-77
2022/09/21 04:36:23;;;;;;;4.04;2.16;;;;;;;14.28;69.89;100342.65;447446;117;923118;-77
2022/09/21 04:37:28;;;;;;;2.62;2.02;;;;;;;14.28;69.97;100342.65;449603;117;922585;-79
2022/09/21 04:38:32;;;;;;;2.58;2.20;;;;;;;14.29;69.99;100354.45;449990;117;922923;-77
2022/09/21 04:39:37;;;;;;;4.24;2.72;;;;;;;14.28;69.99;100348.14;450362;117;922551;-79
2022/09/21 04:40:42;;;;;;;2.82;2.41;;;;;;;14.29;69.98;100348.97;449338;117;922555;-78
2022/09/21 04:41:45;;;;;;;4.14;2.41;;;;;;;14.29;69.97;100346.23;450474;117;930414;-77
2022/09/21 04:42:52;;;;;;;4.91;2.19;;;;;;;14.29;70.04;100348.97;450384;117;923216;-76
2022/09/21 04:43:56;;;;;;;3.28;2.46;;;;;;;14.30;70.04;100353.38;450385;117;922654;-78
2022/09/21 04:44:59;;;;;;;2.98;2.35;;;;;;;14.31;70.07;100352.31;450529;117;923141;-77
2022/09/21 04:46:11;;;;;;;2.56;2.36;;;;;;;14.31;70.02;100346.83;450537;117;922681;-77
2022/09/21 04:47:14;;;;;;;2.39;2.18;;;;;;;14.31;70.11;100350.41;450394;117;923134;-78
2022/09/21 04:48:17;;;;;;;4.80;2.49;;;;;;;14.31;70.10;100350.41;452761;115;922574;-77
2022/09/21 04:49:20;;;;;;;2.23;2.02;;;;;;;14.31;70.06;100350.41;458389;115;923512;-77
2022/09/21 04:50:25;;;;;;;2.55;1.99;;;;;;;14.31;70.01;100346.83;457512;115;922488;-78
2022/09/21 04:51:30;;;;;;;3.54;2.49;;;;;;;14.32;70.08;100348.50;457075;115;922450;-76
2022/09/21 04:52:33;;;;;;;3.01;2.24;;;;;;;14.32;70.12;100349.33;456826;115;922528;-77
2022/09/21 04:53:37;;;;;;;3.89;2.24;;;;;;;14.33;70.13;100353.75;456300;116;922904;-76
2022/09/21 04:54:40;;;;;;;2.52;1.95;;;;;;;14.34;70.16;100354.55;456235;116;922921;-76
2022/09/21 04:55:45;;;;;;;2.26;2.02;;;;;;;14.35;70.13;100357.06;456182;116;922893;-75
2022/09/21 04:56:48;;;;;;;7.54;2.34;;;;;;;14.36;70.11;100355.15;456018;116;930326;-76
2022/09/21 04:57:51;;;;;;;6.94;2.27;;;;;;;14.36;70.11;100352.41;456153;116;930400;-77
2022/09/21 04:58:54;;;;;;;2.76;2.20;;;;;;;14.35;70.12;100354.31;456273;116;922849;-76
2022/09/21 04:59:57;;;;;;;2.87;2.37;;;;;;;14.38;70.11;100350.30;456250;116;922605;-76
2022/09/21 05:01:00;;;;;;;2.90;2.17;;;;;;;14.38;70.12;100350.30;456210;116;922548;-76
2022/09/21 05:02:03;;;;;;;2.79;2.10;;;;;;;14.39;70.15;100352.77;456134;116;922899;-75
2022/09/21 05:03:06;;;;;;;4.79;2.35;;;;;;;14.40;70.12;100350.86;447381;118;930532;-76
2022/09/21 05:04:09;;;;;;;3.98;2.47;;;;;;;14.40;70.11;100354.44;447722;116;923068;-76
2022/09/21 05:05:12;;;;;;;5.22;2.51;;;;;;;14.42;70.15;100351.46;456246;116;922932;-76
2022/09/21 05:06:15;;;;;;;2.49;2.29;;;;;;;14.43;70.07;100347.65;456200;116;922904;-77
2022/09/21 05:07:18;;;;;;;4.44;2.48;;;;;;;14.44;70.07;100349.31;456239;116;922940;-76